createdAt,value
2019-03-04T00:00:28.089Z,0.00
2019-03-04T00:01:28.076Z,0.00
2019-03-04T00:02:28.071Z,0.00
2019-03-04T00:03:28.106Z,0.00
2019-03-04T00:04:28.162Z,0.00
2019-03-04T00:05:28.035Z,0.00
2019-03-04T00:06:28.025Z,0.00
2019-03-04T00:07:28.030Z,0.00
2019-03-04T00:08:28.080Z,0.00
2019-03-04T00:09:27.989Z,0.00
2019-03-04T00:10:27.979Z,0.00
2019-03-04T00:11:27.969Z,0.00
2019-03-04T00:12:27.965Z,0.00
2019-03-04T00:13:27.945Z,0.00
2019-03-04T00:14:28.079Z,0.00
2019-03-04T00:15:27.922Z,0.00
2019-03-04T00:16:27.912Z,0.00
2019-03-04T00:17:27.908Z,0.00
2019-03-04T00:18:28.070Z,0.00
2019-03-04T00:19:28.032Z,0.00
2019-03-04T00:20:28.155Z,0.00
2019-03-04T00:21:27.856Z,0.00
2019-03-04T00:22:27.851Z,0.00
2019-03-04T00:23:27.840Z,0.00
2019-03-04T00:24:27.829Z,0.00
2019-03-04T00:25:27.813Z,0.00
2019-03-04T00:26:27.918Z,0.00
2019-03-04T00:27:27.790Z,0.00
2019-03-04T00:28:27.779Z,0.00
2019-03-04T00:29:27.767Z,0.00
2019-03-04T00:30:27.759Z,0.00
2019-03-04T00:31:27.747Z,0.00
2019-03-04T00:32:27.857Z,0.00
2019-03-04T00:33:27.850Z,0.00
2019-03-04T00:34:27.717Z,0.00
2019-03-04T00:35:27.713Z,0.00
2019-03-04T00:36:27.802Z,0.00
2019-03-04T00:37:27.839Z,0.00
2019-03-04T00:38:27.675Z,0.00
2019-03-04T00:39:27.673Z,0.00
2019-03-04T00:40:27.643Z,0.00
2019-03-04T00:41:27.636Z,0.00
2019-03-04T00:42:27.627Z,0.00
2019-03-04T00:43:27.694Z,0.00
2019-03-04T00:44:27.605Z,0.00
2019-03-04T00:45:27.651Z,0.00
2019-03-04T00:46:27.586Z,0.00
2019-03-04T00:47:27.578Z,0.00
2019-03-04T00:48:27.557Z,0.00
2019-03-04T00:49:27.635Z,0.00
2019-03-04T00:50:27.537Z,0.00
2019-03-04T00:51:28.705Z,0.00
2019-03-04T00:52:27.557Z,0.00
2019-03-04T00:53:27.502Z,0.00
2019-03-04T00:55:39.756Z,0.00
2019-03-04T00:56:39.388Z,0.00
2019-03-04T00:57:39.365Z,0.00
2019-03-04T00:58:39.353Z,0.00
2019-03-04T00:59:39.346Z,0.00
2019-03-04T01:00:39.485Z,0.00
2019-03-04T01:01:39.325Z,0.00
2019-03-04T01:02:39.306Z,0.00
2019-03-04T01:03:39.448Z,0.00
2019-03-04T01:04:39.310Z,0.00
2019-03-04T01:05:39.289Z,0.00
2019-03-04T01:06:39.297Z,0.00
2019-03-04T01:07:39.255Z,0.00
2019-03-04T01:08:39.408Z,0.00
2019-03-04T01:09:39.237Z,0.00
2019-03-04T01:10:39.865Z,0.00
2019-03-04T01:11:39.211Z,0.00
2019-03-04T01:12:39.201Z,0.00
2019-03-04T01:13:39.194Z,0.00
2019-03-04T01:14:39.283Z,0.00
2019-03-04T01:15:39.427Z,0.00
2019-03-04T01:16:39.331Z,0.00
2019-03-04T01:17:39.145Z,0.00
2019-03-04T01:18:39.133Z,0.00
2019-03-04T01:19:39.126Z,0.00
2019-03-04T01:20:39.114Z,0.00
2019-03-04T01:21:39.260Z,0.00
2019-03-04T01:22:39.088Z,0.00
2019-03-04T01:23:39.105Z,0.00
2019-03-04T01:24:39.064Z,0.00
2019-03-04T01:25:41.990Z,0.00
2019-03-04T01:26:39.157Z,0.00
2019-03-04T01:27:39.036Z,0.00
2019-03-04T01:28:39.023Z,0.00
2019-03-04T01:29:39.144Z,0.00
2019-03-04T01:30:39.002Z,0.00
2019-03-04T01:31:38.995Z,0.00
2019-03-04T01:32:39.233Z,0.00
2019-03-04T01:33:38.983Z,0.00
2019-03-04T01:34:38.955Z,0.00
2019-03-04T01:35:38.948Z,0.00
2019-03-04T01:36:38.957Z,0.00
2019-03-04T01:37:38.947Z,0.00
2019-03-04T01:38:39.110Z,0.00
2019-03-04T01:39:38.901Z,0.00
2019-03-04T01:40:38.939Z,0.00
2019-03-04T01:41:38.878Z,0.00
2019-03-04T01:42:39.051Z,0.00
2019-03-04T01:43:39.083Z,0.00
2019-03-04T01:44:38.848Z,0.00
2019-03-04T01:45:39.003Z,0.00
2019-03-04T01:46:38.828Z,0.00
2019-03-04T01:47:38.815Z,0.00
2019-03-04T01:48:38.850Z,0.00
2019-03-04T01:49:38.907Z,0.00
2019-03-04T01:50:38.798Z,0.00
2019-03-04T01:51:38.768Z,0.00
2019-03-04T01:52:38.766Z,0.00
2019-03-04T01:53:38.747Z,0.00
2019-03-04T01:54:38.739Z,0.00
2019-03-04T01:55:38.840Z,0.00
2019-03-04T01:56:38.715Z,0.00
2019-03-04T01:57:38.780Z,0.00
2019-03-04T01:58:38.778Z,0.00
2019-03-04T01:59:38.704Z,0.00
2019-03-04T02:00:38.671Z,0.00
2019-03-04T02:01:38.660Z,0.00
2019-03-04T02:02:38.647Z,0.00
2019-03-04T02:03:38.635Z,0.00
2019-03-04T02:04:38.734Z,0.00
2019-03-04T02:05:38.636Z,0.00
2019-03-04T02:06:38.604Z,0.00
2019-03-04T02:07:38.595Z,0.00
2019-03-04T02:08:38.679Z,0.00
2019-03-04T02:09:38.579Z,0.00
2019-03-04T02:10:38.676Z,0.00
2019-03-04T02:11:38.551Z,0.00
2019-03-04T02:12:38.652Z,0.00
2019-03-04T02:13:38.526Z,0.00
2019-03-04T02:14:38.669Z,0.00
2019-03-04T02:15:38.913Z,0.00
2019-03-04T02:16:39.278Z,0.00
2019-03-04T02:17:38.494Z,0.00
2019-03-04T02:18:38.491Z,0.00
2019-03-04T02:19:38.463Z,0.00
2019-03-04T02:20:38.450Z,0.00
2019-03-04T02:21:38.440Z,0.00
2019-03-04T02:22:38.636Z,0.00
2019-03-04T02:23:39.131Z,0.00
2019-03-04T02:24:38.414Z,0.00
2019-03-04T02:25:38.436Z,0.00
2019-03-04T02:26:38.426Z,0.00
2019-03-04T02:27:38.420Z,0.00
2019-03-04T02:28:38.648Z,0.00
2019-03-04T02:29:38.726Z,0.00
2019-03-04T02:30:38.417Z,0.00
2019-03-04T02:31:38.453Z,0.00
2019-03-04T02:32:38.325Z,0.00
2019-03-04T02:33:38.796Z,0.00
2019-03-04T02:34:38.608Z,0.00
2019-03-04T02:35:38.287Z,0.00
2019-03-04T02:36:38.277Z,0.00
2019-03-04T02:37:38.277Z,0.00
2019-03-04T02:38:38.262Z,0.00
2019-03-04T02:39:39.303Z,0.00
2019-03-04T02:40:38.433Z,0.00
2019-03-04T02:41:38.249Z,0.00
2019-03-04T02:42:38.213Z,0.00
2019-03-04T02:43:38.198Z,0.00
2019-03-04T02:44:38.190Z,0.00
2019-03-04T02:45:38.294Z,0.00
2019-03-04T02:46:38.205Z,0.00
2019-03-04T02:47:38.168Z,0.00
2019-03-04T02:48:38.142Z,0.00
2019-03-04T02:49:38.131Z,0.00
2019-03-04T02:50:38.120Z,0.00
2019-03-04T02:51:38.230Z,0.00
2019-03-04T02:52:38.103Z,0.00
2019-03-04T02:53:38.094Z,0.00
2019-03-04T02:54:38.078Z,0.00
2019-03-04T02:55:38.081Z,0.00
2019-03-04T02:56:38.061Z,0.00
2019-03-04T02:57:38.181Z,0.00
2019-03-04T02:58:38.033Z,0.00
2019-03-04T02:59:38.021Z,0.00
2019-03-04T03:00:39.141Z,0.00
2019-03-04T03:01:38.005Z,0.00
2019-03-04T03:02:38.250Z,0.00
2019-03-04T03:03:38.060Z,0.00
2019-03-04T03:04:38.186Z,0.00
2019-03-04T03:05:37.960Z,0.00
2019-03-04T03:06:37.949Z,0.00
2019-03-04T03:07:37.931Z,0.00
2019-03-04T03:08:38.140Z,0.00
2019-03-04T03:09:38.131Z,0.00
2019-03-04T03:10:37.903Z,0.00
2019-03-04T03:11:37.908Z,0.00
2019-03-04T03:12:37.879Z,0.00
2019-03-04T03:13:37.873Z,0.00
2019-03-04T03:14:37.858Z,0.00
2019-03-04T03:15:38.594Z,0.00
2019-03-04T03:16:37.848Z,0.00
2019-03-04T03:17:37.832Z,0.00
2019-03-04T03:18:37.819Z,0.00
2019-03-04T03:19:37.800Z,0.00
2019-03-04T03:20:38.015Z,0.00
2019-03-04T03:21:38.694Z,0.00
2019-03-04T03:22:37.799Z,0.00
2019-03-04T03:23:38.372Z,0.00
2019-03-04T03:24:37.759Z,0.00
2019-03-04T03:25:37.738Z,0.00
2019-03-04T03:26:37.860Z,0.00
2019-03-04T03:27:37.714Z,0.00
2019-03-04T03:28:37.701Z,0.00
2019-03-04T03:29:37.692Z,0.00
2019-03-04T03:30:37.687Z,0.00
2019-03-04T03:31:37.669Z,0.00
2019-03-04T03:32:37.779Z,0.00
2019-03-04T03:33:39.689Z,0.00
2019-03-04T03:34:37.643Z,0.00
2019-03-04T03:35:37.689Z,0.00
2019-03-04T03:36:37.614Z,0.00
2019-03-04T03:37:37.613Z,0.00
2019-03-04T03:38:37.748Z,0.00
2019-03-04T03:39:37.637Z,0.00
2019-03-04T03:40:37.689Z,0.00
2019-03-04T03:41:37.585Z,0.00
2019-03-04T03:42:37.871Z,0.00
2019-03-04T03:43:37.672Z,0.00
2019-03-04T03:44:37.525Z,0.00
2019-03-04T03:45:37.514Z,0.00
2019-03-04T03:46:37.512Z,0.00
2019-03-04T03:47:37.494Z,0.00
2019-03-04T03:48:37.686Z,0.00
2019-03-04T03:49:37.468Z,0.00
2019-03-04T03:50:37.456Z,0.00
2019-03-04T03:51:37.453Z,0.00
2019-03-04T03:52:37.525Z,0.00
2019-03-04T03:53:37.631Z,0.00
2019-03-04T03:54:37.650Z,0.00
2019-03-04T03:55:37.522Z,0.00
2019-03-04T03:56:37.397Z,0.00
2019-03-04T03:57:37.427Z,0.00
2019-03-04T03:58:37.378Z,0.00
2019-03-04T03:59:37.358Z,0.00
2019-03-04T04:00:37.456Z,0.00
2019-03-04T04:01:37.339Z,0.00
2019-03-04T04:02:37.326Z,0.00
2019-03-04T04:03:37.316Z,0.00
2019-03-04T04:04:37.300Z,0.00
2019-03-04T04:05:37.296Z,0.00
2019-03-04T04:06:37.414Z,0.00
2019-03-04T04:07:37.279Z,0.00
2019-03-04T04:08:37.261Z,0.00
2019-03-04T04:09:37.336Z,0.00
2019-03-04T04:10:37.240Z,0.00
2019-03-04T04:11:37.236Z,0.00
2019-03-04T04:12:37.344Z,0.00
2019-03-04T04:13:37.200Z,0.00
2019-03-04T04:14:37.199Z,0.00
2019-03-04T04:15:37.182Z,0.00
2019-03-04T04:16:37.189Z,0.00
2019-03-04T04:17:37.162Z,0.00
2019-03-04T04:18:37.370Z,0.00
2019-03-04T04:19:37.134Z,0.00
2019-03-04T04:20:37.124Z,0.00
2019-03-04T04:21:37.114Z,0.00
2019-03-04T04:22:37.100Z,0.00
2019-03-04T04:23:37.232Z,0.00
2019-03-04T04:24:37.090Z,0.00
2019-03-04T04:25:37.066Z,0.00
2019-03-04T04:26:37.142Z,0.00
2019-03-04T04:27:37.051Z,0.00
2019-03-04T04:28:37.252Z,0.00
2019-03-04T04:29:37.038Z,0.00
2019-03-04T04:30:37.021Z,0.00
2019-03-04T04:31:37.001Z,0.00
2019-03-04T04:32:37.239Z,0.00
2019-03-04T04:33:37.150Z,0.00
2019-03-04T04:34:36.985Z,0.00
2019-03-04T04:35:36.954Z,0.00
2019-03-04T04:36:37.132Z,0.00
2019-03-04T04:37:36.935Z,0.00
2019-03-04T04:38:36.933Z,0.00
2019-03-04T04:39:37.098Z,0.00
2019-03-04T04:40:36.912Z,0.00
2019-03-04T04:41:36.933Z,0.00
2019-03-04T04:42:37.012Z,0.00
2019-03-04T04:43:36.866Z,0.00
2019-03-04T04:44:36.856Z,0.00
2019-03-04T04:45:36.843Z,0.00
2019-03-04T04:46:36.837Z,0.00
2019-03-04T04:47:37.584Z,0.00
2019-03-04T04:48:36.840Z,0.00
2019-03-04T04:49:36.800Z,0.00
2019-03-04T04:50:36.790Z,0.00
2019-03-04T04:51:36.993Z,0.00
2019-03-04T04:52:36.810Z,0.00
2019-03-04T04:53:36.984Z,0.00
2019-03-04T04:54:36.749Z,0.00
2019-03-04T04:55:36.732Z,0.00
2019-03-04T04:56:57.725Z,0.00
2019-03-04T04:57:36.716Z,0.00
2019-03-04T04:58:36.853Z,0.00
2019-03-04T04:59:36.690Z,0.00
2019-03-04T05:00:36.831Z,0.00
2019-03-04T05:01:36.668Z,0.00
2019-03-04T05:02:36.659Z,0.00
2019-03-04T05:03:36.643Z,0.00
2019-03-04T05:04:36.634Z,0.00
2019-03-04T05:05:36.790Z,0.00
2019-03-04T05:06:47.734Z,0.00
2019-03-04T05:07:36.598Z,0.00
2019-03-04T05:08:36.588Z,0.00
2019-03-04T05:09:36.582Z,0.00
2019-03-04T05:10:36.563Z,0.00
2019-03-04T05:11:36.867Z,0.00
2019-03-04T05:12:36.685Z,0.00
2019-03-04T05:13:36.554Z,0.00
2019-03-04T05:14:36.534Z,0.00
2019-03-04T05:15:36.602Z,0.00
2019-03-04T05:16:36.497Z,0.00
2019-03-04T05:17:36.494Z,0.00
2019-03-04T05:18:36.749Z,0.00
2019-03-04T05:19:36.463Z,0.00
2019-03-04T05:20:36.451Z,0.00
2019-03-04T05:21:36.443Z,0.00
2019-03-04T05:22:36.433Z,4.00
2019-03-04T05:23:36.543Z,4.00
2019-03-04T05:24:36.420Z,0.00
2019-03-04T05:25:36.417Z,4.00
2019-03-04T05:26:36.410Z,4.00
2019-03-04T05:27:36.411Z,8.00
2019-03-04T05:28:36.570Z,4.00
2019-03-04T05:29:36.412Z,4.00
2019-03-04T05:30:36.413Z,12.00
2019-03-04T05:31:36.335Z,12.00
2019-03-04T05:32:36.463Z,12.00
2019-03-04T05:33:36.494Z,16.00
2019-03-04T05:34:36.338Z,20.00
2019-03-04T05:35:36.300Z,24.00
2019-03-04T05:36:36.723Z,24.00
2019-03-04T05:37:36.265Z,28.00
2019-03-04T05:38:36.255Z,32.00
2019-03-04T05:39:36.241Z,32.00
2019-03-04T05:40:36.231Z,32.00
2019-03-04T05:41:36.222Z,40.00
2019-03-04T05:42:36.338Z,44.00
2019-03-04T05:43:36.335Z,44.00
2019-03-04T05:44:36.184Z,48.00
2019-03-04T05:45:36.175Z,52.00
2019-03-04T05:46:36.162Z,60.00
2019-03-04T05:47:36.368Z,64.00
2019-03-04T05:48:36.278Z,68.00
2019-03-04T05:49:36.129Z,64.00
2019-03-04T05:50:36.118Z,60.00
2019-03-04T05:51:36.157Z,68.00
2019-03-04T05:52:36.101Z,72.00
2019-03-04T05:53:36.084Z,72.00
2019-03-04T05:54:36.193Z,72.00
2019-03-04T05:55:36.107Z,64.00
2019-03-04T05:56:36.053Z,56.00
2019-03-04T05:57:36.041Z,64.00
2019-03-04T05:58:36.047Z,68.00
2019-03-04T05:59:36.020Z,72.00
2019-03-04T06:00:36.215Z,80.00
2019-03-04T06:01:35.995Z,84.00
2019-03-04T06:02:35.983Z,92.00
2019-03-04T06:03:35.977Z,96.00
2019-03-04T06:04:36.056Z,96.00
2019-03-04T06:05:36.202Z,84.00
2019-03-04T06:06:36.278Z,92.00
2019-03-04T06:07:35.933Z,100.00
2019-03-04T06:08:35.928Z,116.00
2019-03-04T06:09:35.908Z,128.00
2019-03-04T06:10:36.006Z,124.00
2019-03-04T06:11:35.889Z,124.00
2019-03-04T06:12:36.017Z,116.00
2019-03-04T06:13:35.870Z,108.00
2019-03-04T06:14:35.873Z,108.00
2019-03-04T06:15:35.845Z,116.00
2019-03-04T06:16:46.816Z,132.00
2019-03-04T06:17:38.070Z,152.00
2019-03-04T06:18:35.926Z,176.00
2019-03-04T06:19:35.798Z,192.00
2019-03-04T06:20:35.788Z,236.00
2019-03-04T06:21:35.908Z,292.00
2019-03-04T06:22:35.872Z,364.00
2019-03-04T06:23:35.750Z,472.00
2019-03-04T06:24:35.848Z,592.00
2019-03-04T06:25:35.730Z,776.00
2019-03-04T06:26:35.731Z,992.00
2019-03-04T06:27:35.820Z,1216.00
2019-03-04T06:28:35.824Z,1336.00
2019-03-04T06:29:35.689Z,1384.00
2019-03-04T06:30:35.681Z,1380.00
2019-03-04T06:31:35.670Z,1288.00
2019-03-04T06:32:35.684Z,1116.00
2019-03-04T06:33:35.642Z,1008.00
2019-03-04T06:34:35.782Z,1056.00
2019-03-04T06:35:36.302Z,1100.00
2019-03-04T06:36:35.618Z,1084.00
2019-03-04T06:37:35.597Z,1044.00
2019-03-04T06:38:35.616Z,1056.00
2019-03-04T06:39:35.574Z,1128.00
2019-03-04T06:40:35.822Z,1156.00
2019-03-04T06:41:35.554Z,1164.00
2019-03-04T06:42:35.543Z,1248.00
2019-03-04T06:43:36.043Z,1432.00
2019-03-04T06:44:35.520Z,1676.00
2019-03-04T06:45:35.691Z,1940.00
2019-03-04T06:46:35.504Z,2248.00
2019-03-04T06:47:35.485Z,2524.00
2019-03-04T06:48:35.476Z,2644.00
2019-03-04T06:49:35.465Z,2640.00
2019-03-04T06:50:35.642Z,2544.00
2019-03-04T06:51:35.448Z,2352.00
2019-03-04T06:52:35.434Z,2208.00
2019-03-04T06:53:35.443Z,2192.00
2019-03-04T06:54:35.408Z,2268.00
2019-03-04T06:55:35.532Z,2304.00
2019-03-04T06:56:35.558Z,2232.00
2019-03-04T06:57:35.381Z,2116.00
2019-03-04T06:58:35.364Z,2084.00
2019-03-04T06:59:35.354Z,2144.00
2019-03-04T07:00:35.342Z,2336.00
2019-03-04T07:01:35.438Z,2608.00
2019-03-04T07:02:35.324Z,2856.00
2019-03-04T07:03:35.317Z,2968.00
2019-03-04T07:04:35.299Z,2928.00
2019-03-04T07:05:35.290Z,2748.00
2019-03-04T07:06:35.431Z,2512.00
2019-03-04T07:07:35.268Z,2336.00
2019-03-04T07:08:35.288Z,2252.00
2019-03-04T07:09:35.250Z,2284.00
2019-03-04T07:10:35.273Z,2348.00
2019-03-04T07:11:35.222Z,2320.00
2019-03-04T07:12:35.957Z,2236.00
2019-03-04T07:13:35.243Z,2280.00
2019-03-04T07:14:35.190Z,2400.00
2019-03-04T07:15:35.178Z,2608.00
2019-03-04T07:16:35.179Z,2780.00
2019-03-04T07:17:35.154Z,2896.00
2019-03-04T07:18:36.207Z,2996.00
2019-03-04T07:19:35.744Z,3104.00
2019-03-04T07:20:35.125Z,3192.00
2019-03-04T07:21:35.479Z,3252.00
2019-03-04T07:22:35.101Z,3240.00
2019-03-04T07:23:35.089Z,3228.00
2019-03-04T07:24:35.491Z,3268.00
2019-03-04T07:25:35.273Z,3312.00
2019-03-04T07:26:35.081Z,3336.00
2019-03-04T07:27:35.084Z,3460.00
2019-03-04T07:28:35.038Z,3588.00
2019-03-04T07:29:35.025Z,3720.00
2019-03-04T07:30:35.188Z,3788.00
2019-03-04T07:31:35.106Z,3796.00
2019-03-04T07:32:35.035Z,3752.00
2019-03-04T07:33:35.050Z,3732.00
2019-03-04T07:34:34.967Z,3740.00
2019-03-04T07:35:35.177Z,3724.00
2019-03-04T07:36:35.189Z,3740.00
2019-03-04T07:37:35.045Z,3796.00
2019-03-04T07:38:34.985Z,3868.00
2019-03-04T07:39:34.947Z,3928.00
2019-03-04T07:40:34.927Z,3952.00
2019-03-04T07:41:36.057Z,3924.00
2019-03-04T07:42:34.889Z,3828.00
2019-03-04T07:43:35.187Z,3736.00
2019-03-04T07:44:35.056Z,3644.00
2019-03-04T07:45:34.859Z,3552.00
2019-03-04T07:46:35.371Z,3456.00
2019-03-04T07:47:34.836Z,3384.00
2019-03-04T07:48:34.814Z,3328.00
2019-03-04T07:49:34.951Z,3256.00
2019-03-04T07:50:34.803Z,3184.00
2019-03-04T07:51:34.784Z,3116.00
2019-03-04T07:52:34.813Z,3072.00
2019-03-04T07:53:34.775Z,3044.00
2019-03-04T07:54:35.149Z,3028.00
2019-03-04T07:55:39.783Z,3004.00
2019-03-04T07:56:34.780Z,2980.00
2019-03-04T07:57:34.887Z,2956.00
2019-03-04T07:58:35.957Z,2928.00
2019-03-04T07:59:34.724Z,2920.00
2019-03-04T08:00:34.721Z,2928.00
2019-03-04T08:01:34.893Z,2984.00
2019-03-04T08:02:35.626Z,2928.00
2019-03-04T08:03:34.682Z,2856.00
2019-03-04T08:04:34.693Z,2836.00
2019-03-04T08:05:34.648Z,2868.00
2019-03-04T08:06:34.744Z,2896.00
2019-03-04T08:07:34.616Z,2876.00
2019-03-04T08:08:34.613Z,2856.00
2019-03-04T08:09:34.603Z,2808.00
2019-03-04T08:10:34.635Z,2808.00
2019-03-04T08:11:34.594Z,2824.00
2019-03-04T08:12:35.001Z,2852.00
2019-03-04T08:13:34.563Z,2816.00
2019-03-04T08:14:34.670Z,2864.00
2019-03-04T08:15:34.539Z,2816.00
2019-03-04T08:16:36.217Z,2728.00
2019-03-04T08:17:34.517Z,2892.00
2019-03-04T08:18:35.840Z,3008.00
2019-03-04T08:19:34.544Z,3108.00
2019-03-04T08:20:34.545Z,3336.00
2019-03-04T08:21:34.493Z,3732.00
2019-03-04T08:22:34.476Z,4020.00
2019-03-04T08:23:35.055Z,4176.00
2019-03-04T08:24:34.882Z,4312.00
2019-03-04T08:25:34.492Z,4424.00
2019-03-04T08:26:34.493Z,4696.00
2019-03-04T08:27:49.120Z,4948.00
2019-03-04T08:28:34.455Z,5112.00
2019-03-04T08:29:34.722Z,5184.00
2019-03-04T08:30:34.443Z,5248.00
2019-03-04T08:31:34.350Z,5348.00
2019-03-04T08:32:34.339Z,5356.00
2019-03-04T08:33:34.483Z,5308.00
2019-03-04T08:34:34.321Z,5144.00
2019-03-04T08:35:34.775Z,4952.00
2019-03-04T08:36:34.584Z,5268.00
2019-03-04T08:37:34.281Z,6568.00
2019-03-04T08:38:34.314Z,8744.00
2019-03-04T08:39:34.264Z,11216.00
2019-03-04T08:40:34.248Z,13720.00
2019-03-04T08:41:34.240Z,15808.00
2019-03-04T08:42:34.366Z,17280.00
2019-03-04T08:43:34.258Z,19776.00
2019-03-04T08:44:34.428Z,20320.00
2019-03-04T08:45:34.198Z,18720.00
2019-03-04T08:46:34.203Z,17696.00
2019-03-04T08:47:34.277Z,16192.00
2019-03-04T08:48:34.447Z,16800.00
2019-03-04T08:49:34.156Z,15236.00
2019-03-04T08:50:34.253Z,14020.00
2019-03-04T08:51:34.134Z,13384.00
2019-03-04T08:52:34.144Z,13904.00
2019-03-04T08:53:34.255Z,14924.00
2019-03-04T08:54:34.522Z,13532.00
2019-03-04T08:55:34.080Z,11636.00
2019-03-04T08:56:34.074Z,10952.00
2019-03-04T08:57:34.066Z,10604.00
2019-03-04T08:58:34.467Z,10968.00
2019-03-04T08:59:34.054Z,11576.00
2019-03-04T09:00:34.273Z,11852.00
2019-03-04T09:01:34.048Z,11852.00
2019-03-04T09:02:34.031Z,11632.00
2019-03-04T09:03:34.006Z,11528.00
2019-03-04T09:04:33.983Z,11380.00
2019-03-04T09:05:34.153Z,11208.00
2019-03-04T09:06:34.077Z,11304.00
2019-03-04T09:07:34.257Z,11792.00
2019-03-04T09:08:33.953Z,12280.00
2019-03-04T09:09:33.966Z,12160.00
2019-03-04T09:10:33.939Z,10612.00
2019-03-04T09:11:34.080Z,9120.00
2019-03-04T09:12:35.859Z,8128.00
2019-03-04T09:13:33.901Z,7556.00
2019-03-04T09:14:33.895Z,7156.00
2019-03-04T09:15:33.870Z,7108.00
2019-03-04T09:16:33.977Z,7252.00
2019-03-04T09:17:33.838Z,7556.00
2019-03-04T09:18:34.142Z,8228.00
2019-03-04T09:19:33.847Z,8884.00
2019-03-04T09:20:33.833Z,9252.00
2019-03-04T09:21:33.798Z,9488.00
2019-03-04T09:22:33.982Z,9716.00
2019-03-04T09:23:33.772Z,9904.00
2019-03-04T09:24:33.819Z,9428.00
2019-03-04T09:25:33.762Z,8296.00
2019-03-04T09:26:33.735Z,7544.00
2019-03-04T09:27:33.735Z,7252.00
2019-03-04T09:28:33.914Z,7120.00
2019-03-04T09:29:33.703Z,6984.00
2019-03-04T09:30:33.700Z,7252.00
2019-03-04T09:31:33.699Z,7716.00
2019-03-04T09:32:33.674Z,8224.00
2019-03-04T09:33:33.778Z,8548.00
2019-03-04T09:34:33.656Z,8388.00
2019-03-04T09:35:33.659Z,8416.00
2019-03-04T09:36:33.744Z,8800.00
2019-03-04T09:37:33.648Z,8724.00
2019-03-04T09:38:33.612Z,7908.00
2019-03-04T09:39:33.966Z,7180.00
2019-03-04T09:40:33.636Z,6760.00
2019-03-04T09:41:33.599Z,6484.00
2019-03-04T09:42:33.575Z,6284.00
2019-03-04T09:43:33.567Z,5668.00
2019-03-04T09:44:33.582Z,5280.00
2019-03-04T09:45:38.907Z,4876.00
2019-03-04T09:46:34.559Z,4652.00
2019-03-04T09:47:33.755Z,4352.00
2019-03-04T09:48:33.566Z,3804.00
2019-03-04T09:49:33.499Z,3380.00
2019-03-04T09:50:33.495Z,3676.00
2019-03-04T09:51:33.469Z,3696.00
2019-03-04T09:52:33.456Z,3512.00
2019-03-04T09:53:39.407Z,3588.00
2019-03-04T09:54:34.793Z,3668.00
2019-03-04T09:55:33.938Z,3660.00
2019-03-04T09:56:33.525Z,3584.00
2019-03-04T09:57:33.470Z,3516.00
2019-03-04T09:58:33.414Z,3480.00
2019-03-04T09:59:33.386Z,3372.00
2019-03-04T10:00:33.540Z,3224.00
2019-03-04T10:01:33.357Z,3380.00
2019-03-04T10:02:33.349Z,3620.00
2019-03-04T10:03:33.478Z,3900.00
2019-03-04T10:04:33.332Z,4112.00
2019-03-04T10:05:33.323Z,4404.00
2019-03-04T10:06:33.446Z,4724.00
2019-03-04T10:07:33.427Z,4964.00
2019-03-04T10:08:33.286Z,5324.00
2019-03-04T10:09:33.274Z,5784.00
2019-03-04T10:10:33.261Z,6456.00
2019-03-04T10:11:33.291Z,6972.00
2019-03-04T10:12:33.382Z,7312.00
2019-03-04T10:13:33.234Z,7828.00
2019-03-04T10:14:33.214Z,8144.00
2019-03-04T10:15:33.238Z,8196.00
2019-03-04T10:16:33.197Z,8068.00
2019-03-04T10:17:33.315Z,8072.00
2019-03-04T10:18:33.168Z,7824.00
2019-03-04T10:19:33.157Z,7484.00
2019-03-04T10:20:33.155Z,7024.00
2019-03-04T10:21:33.147Z,6556.00
2019-03-04T10:22:33.133Z,6332.00
2019-03-04T10:23:33.255Z,6404.00
2019-03-04T10:24:33.259Z,6204.00
2019-03-04T10:25:33.111Z,6264.00
2019-03-04T10:26:33.097Z,6672.00
2019-03-04T10:27:33.088Z,7336.00
2019-03-04T10:28:33.381Z,8304.00
2019-03-04T10:29:33.054Z,9224.00
2019-03-04T10:30:33.044Z,9844.00
2019-03-04T10:31:33.030Z,10676.00
2019-03-04T10:32:33.019Z,11668.00
2019-03-04T10:33:33.262Z,12896.00
2019-03-04T10:34:32.999Z,28864.00
2019-03-04T10:35:32.992Z,48544.00
2019-03-04T10:36:32.994Z,63840.00
2019-03-04T10:37:32.983Z,62400.00
2019-03-04T10:38:32.965Z,63680.00
2019-03-04T10:39:33.064Z,64928.00
2019-03-04T10:40:32.967Z,60448.00
2019-03-04T10:41:32.922Z,64384.00
2019-03-04T10:42:32.922Z,57984.00
2019-03-04T10:43:32.894Z,17536.00
2019-03-04T10:44:37.602Z,19552.00
2019-03-04T10:45:33.227Z,29280.00
2019-03-04T10:46:32.888Z,50624.00
2019-03-04T10:47:32.886Z,29792.00
2019-03-04T10:48:32.851Z,69472.00
2019-03-04T10:49:33.056Z,46848.00
2019-03-04T10:50:32.820Z,19680.00
2019-03-04T10:51:32.979Z,16448.00
2019-03-04T10:52:32.928Z,10164.00
2019-03-04T10:53:32.792Z,6964.00
2019-03-04T10:54:32.782Z,7548.00
2019-03-04T10:55:41.505Z,7328.00
2019-03-04T10:56:33.881Z,5520.00
2019-03-04T10:57:32.758Z,5548.00
2019-03-04T10:58:47.623Z,6000.00
2019-03-04T10:59:32.891Z,6192.00
2019-03-04T11:00:32.840Z,6664.00
2019-03-04T11:01:32.698Z,6596.00
2019-03-04T11:02:32.775Z,4876.00
2019-03-04T11:03:32.702Z,5820.00
2019-03-04T11:04:32.695Z,9660.00
2019-03-04T11:05:32.859Z,11188.00
2019-03-04T11:06:32.647Z,9088.00
2019-03-04T11:07:32.636Z,5652.00
2019-03-04T11:08:32.629Z,5908.00
2019-03-04T11:09:32.669Z,7796.00
2019-03-04T11:10:32.595Z,7420.00
2019-03-04T11:11:32.822Z,6544.00
2019-03-04T11:12:32.657Z,6496.00
2019-03-04T11:13:32.569Z,6220.00
2019-03-04T11:14:32.671Z,5932.00
2019-03-04T11:15:32.833Z,6388.00
2019-03-04T11:16:32.532Z,3580.00
2019-03-04T11:17:32.783Z,3648.00
2019-03-04T11:18:32.629Z,4688.00
2019-03-04T11:19:32.630Z,7544.00
2019-03-04T11:20:32.511Z,8628.00
2019-03-04T11:21:32.528Z,10696.00
2019-03-04T11:22:32.496Z,9708.00
2019-03-04T11:23:32.454Z,10696.00
2019-03-04T11:24:32.563Z,15000.00
2019-03-04T11:25:32.451Z,18944.00
2019-03-04T11:26:32.457Z,15300.00
2019-03-04T11:27:32.462Z,9016.00
2019-03-04T11:28:32.460Z,3780.00
2019-03-04T11:29:32.457Z,2396.00
2019-03-04T11:30:32.567Z,2032.00
2019-03-04T11:31:32.421Z,1744.00
2019-03-04T11:32:32.353Z,1548.00
2019-03-04T11:33:32.362Z,2792.00
2019-03-04T11:34:32.465Z,5172.00
2019-03-04T11:35:32.354Z,5248.00
2019-03-04T11:36:32.617Z,4716.00
2019-03-04T11:37:32.303Z,4540.00
2019-03-04T11:38:32.298Z,4836.00
2019-03-04T11:39:32.278Z,5164.00
2019-03-04T11:40:32.270Z,4268.00
2019-03-04T11:41:32.254Z,3176.00
2019-03-04T11:42:32.444Z,2928.00
2019-03-04T11:43:32.242Z,2924.00
2019-03-04T11:44:32.230Z,3024.00
2019-03-04T11:45:32.248Z,3948.00
2019-03-04T11:46:32.203Z,5412.00
2019-03-04T11:47:32.195Z,3860.00
2019-03-04T11:48:32.320Z,3060.00
2019-03-04T11:49:32.191Z,3680.00
2019-03-04T11:50:32.193Z,5504.00
2019-03-04T11:51:32.213Z,6976.00
2019-03-04T11:52:32.142Z,4748.00
2019-03-04T11:53:32.489Z,3508.00
2019-03-04T11:54:32.120Z,2496.00
2019-03-04T11:55:32.118Z,1676.00
2019-03-04T11:56:32.104Z,1540.00
2019-03-04T11:57:32.078Z,1640.00
2019-03-04T11:58:32.087Z,1664.00
2019-03-04T11:59:32.360Z,1584.00
2019-03-04T12:00:32.062Z,2184.00
2019-03-04T12:01:32.039Z,2524.00
2019-03-04T12:02:38.967Z,2436.00
2019-03-04T12:03:33.022Z,2500.00
2019-03-04T12:04:32.029Z,2492.00
2019-03-04T12:05:32.133Z,2884.00
2019-03-04T12:06:31.992Z,3108.00
2019-03-04T12:07:31.986Z,3380.00
2019-03-04T12:08:32.107Z,4852.00
2019-03-04T12:09:31.951Z,6244.00
2019-03-04T12:10:31.975Z,6892.00
2019-03-04T12:11:38.250Z,6832.00
2019-03-04T12:12:32.920Z,6976.00
2019-03-04T12:13:31.901Z,6672.00
2019-03-04T12:14:31.887Z,5756.00
2019-03-04T12:15:31.878Z,5756.00
2019-03-04T12:16:31.899Z,6964.00
2019-03-04T12:17:32.009Z,6680.00
2019-03-04T12:18:31.865Z,6812.00
2019-03-04T12:19:31.838Z,6904.00
2019-03-04T12:20:31.838Z,7548.00
2019-03-04T12:21:31.829Z,8716.00
2019-03-04T12:22:33.151Z,10416.00
2019-03-04T12:23:31.951Z,11816.00
2019-03-04T12:24:31.840Z,12404.00
2019-03-04T12:25:31.805Z,14180.00
2019-03-04T12:26:31.758Z,20704.00
2019-03-04T12:27:31.775Z,18304.00
2019-03-04T12:28:31.900Z,15736.00
2019-03-04T12:29:46.633Z,19008.00
2019-03-04T12:30:31.732Z,18240.00
2019-03-04T12:31:31.714Z,17504.00
2019-03-04T12:32:31.854Z,14672.00
2019-03-04T12:33:31.684Z,12092.00
2019-03-04T12:34:31.689Z,12304.00
2019-03-04T12:35:31.693Z,11792.00
2019-03-04T12:36:31.659Z,11464.00
2019-03-04T12:37:31.636Z,10316.00